createdAt,value
2024-05-09T00:01:16.708Z,105.40
2024-05-09T00:02:16.767Z,105.42
2024-05-09T00:03:16.819Z,106.89
2024-05-09T00:04:16.931Z,105.03
2024-05-09T00:05:17.042Z,104.53
2024-05-09T00:06:17.134Z,105.17
2024-05-09T00:07:17.093Z,105.05
2024-05-09T00:08:17.196Z,104.06
2024-05-09T00:09:17.204Z,103.45
2024-05-09T00:10:25.002Z,104.91
2024-05-09T00:11:18.413Z,104.99
2024-05-09T00:12:17.342Z,105.25
2024-05-09T00:13:17.291Z,105.26
2024-05-09T00:14:17.300Z,104.46
2024-05-09T00:15:17.265Z,103.03
2024-05-09T00:16:17.278Z,105.16
2024-05-09T00:17:17.424Z,103.47
2024-05-09T00:18:17.412Z,104.13
2024-05-09T00:19:17.443Z,104.62
2024-05-09T00:20:20.602Z,102.91
2024-05-09T00:21:18.442Z,103.08
2024-05-09T00:22:17.431Z,103.21
2024-05-09T00:23:17.455Z,103.59
2024-05-09T00:24:17.444Z,103.49
2024-05-09T00:25:17.456Z,103.01
2024-05-09T00:26:17.520Z,101.98
2024-05-09T00:27:17.435Z,102.93
2024-05-09T00:28:17.440Z,102.65
2024-05-09T00:29:17.597Z,102.47
2024-05-09T00:30:24.454Z,103.17
2024-05-09T00:31:18.602Z,103.39
2024-05-09T00:32:17.679Z,103.46
2024-05-09T00:33:17.905Z,103.64
2024-05-09T00:34:17.680Z,103.77
2024-05-09T00:35:17.660Z,104.72
2024-05-09T00:36:17.600Z,103.68
2024-05-09T00:37:17.602Z,102.62
2024-05-09T00:38:17.675Z,104.22
2024-05-09T00:39:17.709Z,102.75
2024-05-09T00:40:22.899Z,102.82
2024-05-09T00:41:19.790Z,102.91
2024-05-09T00:42:17.784Z,103.15
2024-05-09T00:43:17.786Z,103.26
2024-05-09T00:44:17.823Z,102.85
2024-05-09T00:45:17.830Z,103.42
2024-05-09T00:46:17.900Z,103.42
2024-05-09T00:47:18.084Z,103.84
2024-05-09T00:48:20.759Z,102.61
2024-05-09T00:49:18.170Z,104.20
2024-05-09T00:50:22.775Z,102.67
2024-05-09T00:51:19.094Z,102.92
2024-05-09T00:52:18.043Z,103.08
2024-05-09T00:53:18.120Z,103.53
2024-05-09T00:54:18.047Z,103.61
2024-05-09T00:55:18.059Z,103.43
2024-05-09T00:56:18.103Z,101.66
2024-05-09T00:57:18.079Z,101.94
2024-05-09T00:58:18.080Z,101.87
2024-05-09T00:59:18.192Z,102.07
2024-05-09T01:00:26.737Z,102.68
2024-05-09T01:01:19.248Z,102.81
2024-05-09T01:02:18.268Z,102.88
2024-05-09T01:03:18.412Z,103.15
2024-05-09T01:04:18.275Z,101.05
2024-05-09T01:05:18.273Z,102.20
2024-05-09T01:06:18.219Z,101.55
2024-05-09T01:07:18.228Z,101.32
2024-05-09T01:08:18.284Z,102.79
2024-05-09T01:09:18.318Z,102.03
2024-05-09T01:10:24.325Z,102.01
2024-05-09T01:11:19.626Z,102.10
2024-05-09T01:12:18.722Z,101.52
2024-05-09T01:13:18.397Z,102.47
2024-05-09T01:14:18.464Z,100.90
2024-05-09T01:15:18.411Z,100.75
2024-05-09T01:16:18.419Z,98.00
2024-05-09T01:17:18.643Z,100.30
2024-05-09T01:18:18.652Z,100.25
2024-05-09T01:19:18.576Z,100.05
2024-05-09T01:20:22.937Z,99.71
2024-05-09T01:21:19.767Z,99.85
2024-05-09T01:22:18.596Z,100.04
2024-05-09T01:23:18.733Z,100.56
2024-05-09T01:24:18.603Z,98.99
2024-05-09T01:25:18.606Z,99.21
2024-05-09T01:26:18.671Z,98.92
2024-05-09T01:27:18.606Z,99.94
2024-05-09T01:28:18.615Z,98.56
2024-05-09T01:29:18.720Z,99.88
2024-05-09T01:30:24.241Z,100.27
2024-05-09T01:31:19.787Z,100.35
2024-05-09T01:32:18.884Z,100.33
2024-05-09T01:33:18.862Z,99.33
2024-05-09T01:34:18.802Z,98.06
2024-05-09T01:35:18.806Z,99.71
2024-05-09T01:36:18.899Z,97.19
2024-05-09T01:37:18.800Z,97.71
2024-05-09T01:38:18.830Z,99.41
2024-05-09T01:39:18.854Z,97.24
2024-05-09T01:40:25.282Z,97.90
2024-05-09T01:41:19.987Z,98.04
2024-05-09T01:42:18.948Z,98.14
2024-05-09T01:43:18.942Z,98.09
2024-05-09T01:44:19.007Z,97.15
2024-05-09T01:45:18.951Z,97.79
2024-05-09T01:46:18.949Z,97.23
2024-05-09T01:47:19.067Z,96.83
2024-05-09T01:48:19.141Z,97.35
2024-05-09T01:49:19.242Z,95.57
2024-05-09T01:51:19.079Z,96.22
2024-05-09T01:52:19.053Z,95.85
2024-05-09T01:53:19.144Z,95.09
2024-05-09T01:54:19.047Z,95.11
2024-05-09T01:55:19.063Z,95.45
2024-05-09T01:56:19.093Z,93.95
2024-05-09T01:57:19.078Z,94.51
2024-05-09T01:58:19.061Z,94.66
2024-05-09T01:59:19.157Z,95.36
2024-05-09T02:00:30.037Z,94.62
2024-05-09T02:01:20.102Z,94.82
2024-05-09T02:02:19.250Z,95.19
2024-05-09T02:03:19.388Z,95.52
2024-05-09T02:04:19.431Z,94.30
2024-05-09T02:05:19.305Z,95.71
2024-05-09T02:06:19.092Z,95.68
2024-05-09T02:07:19.086Z,94.87
2024-05-09T02:08:19.529Z,93.61
2024-05-09T02:09:19.094Z,94.69
2024-05-09T02:10:25.968Z,94.76
2024-05-09T02:11:20.187Z,94.84
2024-05-09T02:12:19.283Z,94.86
2024-05-09T02:13:19.149Z,94.90
2024-05-09T02:14:19.155Z,95.23
2024-05-09T02:15:19.130Z,94.08
2024-05-09T02:16:19.143Z,94.48
2024-05-09T02:17:19.227Z,94.59
2024-05-09T02:18:19.221Z,94.45
2024-05-09T02:19:19.235Z,92.12
2024-05-09T02:20:29.762Z,92.90
2024-05-09T02:21:20.201Z,93.13
2024-05-09T02:22:19.211Z,93.20
2024-05-09T02:23:19.241Z,93.72
2024-05-09T02:24:19.471Z,93.68
2024-05-09T02:25:19.223Z,94.63
2024-05-09T02:26:19.294Z,93.13
2024-05-09T02:27:19.241Z,93.57
2024-05-09T02:28:19.247Z,93.86
2024-05-09T02:29:19.306Z,93.22
2024-05-09T02:30:26.330Z,93.58
2024-05-09T02:31:20.281Z,93.68
2024-05-09T02:32:19.406Z,94.04
2024-05-09T02:33:19.422Z,93.77
2024-05-09T02:34:19.372Z,92.94
2024-05-09T02:35:19.285Z,93.89
2024-05-09T02:36:19.271Z,93.09
2024-05-09T02:37:19.279Z,93.15
2024-05-09T02:38:19.339Z,94.28
2024-05-09T02:39:19.289Z,91.82
2024-05-09T02:40:25.635Z,92.82
2024-05-09T02:41:20.394Z,93.04
2024-05-09T02:42:19.366Z,93.20
2024-05-09T02:43:19.363Z,92.92
2024-05-09T02:44:19.425Z,93.71
2024-05-09T02:45:19.380Z,93.69
2024-05-09T02:46:19.374Z,93.06
2024-05-09T02:47:19.497Z,93.59
2024-05-09T02:48:19.531Z,95.38
2024-05-09T02:49:19.527Z,92.75
2024-05-09T02:50:29.038Z,92.99
2024-05-09T02:51:20.443Z,93.20
2024-05-09T02:52:19.446Z,93.58
2024-05-09T02:53:19.505Z,93.95
2024-05-09T02:54:19.445Z,93.68
2024-05-09T02:55:19.438Z,94.34
2024-05-09T02:56:19.486Z,93.75
2024-05-09T02:57:19.450Z,94.02
2024-05-09T02:58:19.455Z,95.07
2024-05-09T02:59:19.484Z,93.68
2024-05-09T03:00:26.266Z,93.74
2024-05-09T03:01:20.588Z,93.81
2024-05-09T03:02:19.637Z,93.96
2024-05-09T03:03:19.793Z,94.33
2024-05-09T03:04:19.569Z,94.79
2024-05-09T03:05:19.559Z,94.71
2024-05-09T03:06:19.628Z,93.56
2024-05-09T03:07:20.321Z,92.78
2024-05-09T03:08:19.562Z,95.45
2024-05-09T03:09:19.569Z,92.44
2024-05-09T03:10:25.406Z,93.59
2024-05-09T03:11:20.682Z,93.77
2024-05-09T03:12:19.669Z,93.94
2024-05-09T03:13:19.656Z,93.94
2024-05-09T03:14:19.710Z,94.20
2024-05-09T03:15:19.658Z,94.29
2024-05-09T03:16:19.668Z,92.67
2024-05-09T03:17:19.757Z,93.22
2024-05-09T03:18:19.803Z,93.77
2024-05-09T03:19:19.890Z,92.32
2024-05-09T03:20:23.729Z,90.96
2024-05-09T03:21:20.776Z,91.14
2024-05-09T03:22:19.762Z,91.57
2024-05-09T03:23:19.842Z,92.54
2024-05-09T03:24:19.758Z,93.46
2024-05-09T03:25:19.753Z,94.14
2024-05-09T03:26:19.829Z,94.11
2024-05-09T03:27:19.764Z,92.31
2024-05-09T03:28:19.793Z,94.26
2024-05-09T03:29:19.807Z,91.97
2024-05-09T03:30:26.197Z,92.67
2024-05-09T03:31:20.849Z,92.78
2024-05-09T03:32:20.007Z,92.93
2024-05-09T03:33:20.846Z,93.36
2024-05-09T03:34:19.869Z,93.87
2024-05-09T03:35:19.925Z,94.31
2024-05-09T03:36:19.867Z,93.50
2024-05-09T03:37:19.859Z,92.01
2024-05-09T03:38:19.894Z,92.13
2024-05-09T03:39:19.957Z,91.86
2024-05-09T03:40:23.623Z,93.91
2024-05-09T03:41:21.025Z,94.00
2024-05-09T03:42:19.972Z,92.96
2024-05-09T03:43:20.213Z,94.13
2024-05-09T03:44:19.989Z,93.17
2024-05-09T03:45:19.987Z,93.00
2024-05-09T03:46:19.987Z,93.00
2024-05-09T03:47:20.220Z,91.88
2024-05-09T03:48:20.277Z,91.90
2024-05-09T03:49:20.218Z,89.89
2024-05-09T03:50:26.165Z,91.70
2024-05-09T03:51:21.156Z,91.86
2024-05-09T03:52:20.106Z,91.96
2024-05-09T03:53:20.178Z,91.83
2024-05-09T03:54:20.116Z,91.87
2024-05-09T03:55:20.115Z,91.03
2024-05-09T03:56:20.182Z,91.32
2024-05-09T03:57:20.134Z,91.85
2024-05-09T03:58:20.152Z,90.16
2024-05-09T03:59:20.219Z,91.30
2024-05-09T04:00:26.669Z,90.53
2024-05-09T04:01:21.319Z,90.66
2024-05-09T04:02:20.260Z,90.82
2024-05-09T04:03:20.562Z,90.79
2024-05-09T04:04:20.237Z,90.85
2024-05-09T04:05:20.265Z,90.09
2024-05-09T04:06:20.209Z,92.46
2024-05-09T04:07:20.226Z,90.81
2024-05-09T04:08:20.282Z,90.29
2024-05-09T04:09:20.228Z,89.79
2024-05-09T04:10:27.406Z,90.00
2024-05-09T04:11:21.417Z,90.17
2024-05-09T04:12:20.315Z,90.23
2024-05-09T04:13:20.270Z,90.57
2024-05-09T04:14:20.388Z,90.50
2024-05-09T04:15:20.257Z,90.62
2024-05-09T04:16:20.261Z,89.39
2024-05-09T04:17:20.298Z,89.20
2024-05-09T04:18:20.363Z,89.05
2024-05-09T04:19:20.491Z,89.90
2024-05-09T04:20:29.074Z,88.87
2024-05-09T04:21:21.355Z,89.04
2024-05-09T04:22:20.332Z,89.29
2024-05-09T04:23:20.357Z,89.24
2024-05-09T04:24:20.345Z,89.97
2024-05-09T04:25:20.333Z,89.04
2024-05-09T04:26:20.420Z,89.85
2024-05-09T04:27:20.368Z,90.67
2024-05-09T04:28:20.353Z,87.59
2024-05-09T04:29:20.436Z,88.24
2024-05-09T04:30:26.318Z,87.23
2024-05-09T04:31:21.461Z,87.40
2024-05-09T04:32:20.602Z,87.57
2024-05-09T04:33:20.887Z,88.32
2024-05-09T04:34:20.598Z,88.27
2024-05-09T04:35:20.559Z,88.60
2024-05-09T04:36:20.453Z,87.71
2024-05-09T04:37:20.468Z,86.80
2024-05-09T04:38:27.736Z,50.00
2024-05-09T04:39:27.688Z,50.00
2024-05-09T04:40:33.310Z,50.00
2024-05-09T04:41:28.766Z,50.00
2024-05-09T04:42:27.637Z,50.00
2024-05-09T04:43:27.626Z,50.00
2024-05-09T04:44:27.686Z,50.00
2024-05-09T04:45:27.585Z,50.00
2024-05-09T04:46:27.581Z,50.91
2024-05-09T04:47:27.692Z,50.50
2024-05-09T04:48:27.710Z,51.88
2024-05-09T04:49:27.735Z,51.79
2024-05-09T04:50:35.149Z,51.58
2024-05-09T04:51:28.616Z,51.78
2024-05-09T04:52:27.584Z,51.62
2024-05-09T04:53:27.616Z,51.73
2024-05-09T04:54:34.220Z,50.91
2024-05-09T04:55:28.516Z,51.81
2024-05-09T04:56:27.603Z,51.58
2024-05-09T04:57:27.464Z,51.80
2024-05-09T04:58:27.446Z,50.01
2024-05-09T04:59:27.533Z,50.49
2024-05-09T05:00:35.253Z,49.91
2024-05-09T05:01:28.436Z,50.09
2024-05-09T05:02:27.402Z,50.36
2024-05-09T05:03:27.525Z,50.24
2024-05-09T05:04:27.346Z,51.15
2024-05-09T05:05:27.325Z,50.13
2024-05-09T05:06:27.248Z,52.70
2024-05-09T05:07:27.215Z,51.16
2024-05-09T05:08:27.228Z,52.28
2024-05-09T05:09:27.171Z,50.00
2024-05-09T05:10:33.617Z,52.69
2024-05-09T05:11:28.275Z,52.86
2024-05-09T05:12:27.209Z,52.98
2024-05-09T05:13:27.073Z,52.15
2024-05-09T05:14:27.222Z,52.57
2024-05-09T05:15:27.027Z,48.86
2024-05-09T05:16:26.987Z,50.60
2024-05-09T05:17:27.089Z,53.20
2024-05-09T05:18:27.646Z,51.82
2024-05-09T05:19:27.091Z,51.76
2024-05-09T05:20:32.908Z,51.19
2024-05-09T05:21:28.010Z,51.41
2024-05-09T05:22:26.948Z,51.70
2024-05-09T05:23:27.050Z,51.61
2024-05-09T05:24:26.900Z,50.77
2024-05-09T05:25:26.889Z,52.57
2024-05-09T05:26:26.877Z,52.32
2024-05-09T05:27:26.831Z,50.13
2024-05-09T05:28:26.835Z,50.91
2024-05-09T05:29:26.935Z,50.12
2024-05-09T05:30:32.598Z,52.26
2024-05-09T05:31:27.932Z,52.43
2024-05-09T05:32:27.002Z,52.66
2024-05-09T05:33:27.140Z,52.89
2024-05-09T05:34:26.840Z,53.13
2024-05-09T05:35:27.036Z,52.71
2024-05-09T05:36:26.786Z,50.99
2024-05-09T05:37:26.780Z,51.85
2024-05-09T05:38:28.528Z,51.54
2024-05-09T05:39:26.742Z,52.07
2024-05-09T05:40:33.355Z,52.29
2024-05-09T05:41:27.771Z,52.40
2024-05-09T05:42:26.674Z,52.79
2024-05-09T05:43:26.660Z,52.45
2024-05-09T05:44:26.680Z,51.24
2024-05-09T05:45:26.600Z,49.54
2024-05-09T05:46:26.575Z,50.76
2024-05-09T05:47:26.677Z,50.32
2024-05-09T05:48:26.682Z,51.09
2024-05-09T05:49:26.744Z,50.00
2024-05-09T05:50:32.600Z,51.35
2024-05-09T05:51:27.951Z,51.49
2024-05-09T05:52:26.556Z,51.35
2024-05-09T05:53:26.568Z,51.07
2024-05-09T05:54:26.480Z,50.28
2024-05-09T05:55:26.461Z,50.04
2024-05-09T05:56:26.482Z,51.13
2024-05-09T05:57:26.398Z,50.22
2024-05-09T05:58:26.379Z,51.12
2024-05-09T05:59:26.430Z,50.76
2024-05-09T06:00:34.353Z,50.33
2024-05-09T06:01:27.548Z,50.53
2024-05-09T06:02:26.502Z,50.70
2024-05-09T06:03:26.404Z,50.98
2024-05-09T06:04:26.403Z,49.58
2024-05-09T06:05:27.739Z,49.55
2024-05-09T06:06:26.320Z,51.09
2024-05-09T06:07:26.293Z,50.41
2024-05-09T06:08:28.862Z,52.95
2024-05-09T06:09:26.246Z,53.61
2024-05-09T06:10:34.766Z,51.80
2024-05-09T06:11:27.279Z,52.05
2024-05-09T06:12:26.270Z,52.41
2024-05-09T06:13:26.166Z,52.44
2024-05-09T06:14:26.159Z,51.79
2024-05-09T06:15:26.126Z,51.43
2024-05-09T06:16:26.193Z,50.96
2024-05-09T06:17:26.228Z,51.85
2024-05-09T06:18:26.439Z,51.32
2024-05-09T06:19:26.351Z,51.14
2024-05-09T06:20:34.375Z,50.52
2024-05-09T06:21:27.054Z,50.74
2024-05-09T06:22:25.963Z,51.01
2024-05-09T06:23:25.974Z,50.91
2024-05-09T06:24:25.943Z,50.32
2024-05-09T06:25:25.900Z,50.47
2024-05-09T06:26:25.964Z,51.46
2024-05-09T06:27:25.854Z,51.00
2024-05-09T06:28:25.840Z,50.78
2024-05-09T06:29:25.943Z,54.35
2024-05-09T06:30:34.782Z,52.08
2024-05-09T06:31:26.793Z,52.28
2024-05-09T06:32:25.933Z,52.52
2024-05-09T06:33:26.087Z,52.82
2024-05-09T06:34:25.883Z,52.86
2024-05-09T06:35:25.727Z,51.76
2024-05-09T06:36:25.667Z,51.49
2024-05-09T06:37:25.649Z,50.00
2024-05-09T06:38:26.403Z,52.10
2024-05-09T06:39:25.611Z,50.86
2024-05-09T06:40:30.040Z,52.47
2024-05-09T06:41:26.606Z,52.60
2024-05-09T06:42:25.523Z,52.93
2024-05-09T06:43:25.488Z,52.83
2024-05-09T06:44:25.515Z,52.82
2024-05-09T06:45:25.431Z,52.76
2024-05-09T06:46:25.405Z,52.26
2024-05-09T06:47:25.508Z,52.75
2024-05-09T06:48:25.461Z,50.13
2024-05-09T06:49:25.526Z,51.50
2024-05-09T06:50:28.364Z,53.15
2024-05-09T06:51:26.290Z,53.32
2024-05-09T06:52:25.264Z,53.44
2024-05-09T06:53:25.450Z,53.55
2024-05-09T06:54:25.206Z,53.95
2024-05-09T06:55:25.216Z,53.29
2024-05-09T06:56:25.216Z,52.03
2024-05-09T06:57:25.123Z,51.13
2024-05-09T06:58:25.104Z,52.65
2024-05-09T06:59:25.114Z,53.38
2024-05-09T07:00:30.935Z,54.29
2024-05-09T07:01:26.073Z,54.43
2024-05-09T07:02:25.061Z,52.98
2024-05-09T07:03:25.157Z,52.70
2024-05-09T07:04:25.075Z,53.88
2024-05-09T07:05:25.058Z,51.64
2024-05-09T07:06:24.865Z,53.02
2024-05-09T07:07:24.844Z,51.97
2024-05-09T07:08:24.827Z,52.15
2024-05-09T07:09:24.796Z,52.17
2024-05-09T07:10:29.199Z,51.13
2024-05-09T07:11:25.909Z,51.29
2024-05-09T07:12:24.871Z,51.70
2024-05-09T07:13:24.722Z,51.67
2024-05-09T07:14:24.753Z,51.31
2024-05-09T07:15:24.655Z,53.33
2024-05-09T07:16:24.674Z,52.63
2024-05-09T07:17:24.844Z,51.62
2024-05-09T07:18:24.683Z,52.10
2024-05-09T07:19:24.775Z,51.98
2024-05-09T07:20:32.441Z,50.65
2024-05-09T07:21:25.541Z,50.88
2024-05-09T07:22:24.458Z,50.95
2024-05-09T07:23:24.587Z,51.67
2024-05-09T07:24:24.396Z,51.43
2024-05-09T07:25:24.393Z,50.13
2024-05-09T07:26:24.387Z,52.28
2024-05-09T07:27:24.314Z,51.41
2024-05-09T07:28:24.284Z,52.04
2024-05-09T07:29:24.272Z,52.78
2024-05-09T07:30:32.485Z,54.11
2024-05-09T07:31:25.184Z,54.23
2024-05-09T07:32:24.221Z,54.13
2024-05-09T07:33:24.806Z,52.98
2024-05-09T07:34:24.216Z,51.31
2024-05-09T07:35:24.102Z,52.07
2024-05-09T07:36:24.010Z,53.58
2024-05-09T07:37:23.989Z,51.21
2024-05-09T07:38:24.004Z,51.36
2024-05-09T07:39:23.913Z,53.01
2024-05-09T07:40:32.858Z,50.54
2024-05-09T07:41:24.915Z,50.75
2024-05-09T07:42:23.824Z,51.00
2024-05-09T07:43:23.788Z,50.90
2024-05-09T07:44:23.783Z,51.06
2024-05-09T07:45:41.688Z,51.65
2024-05-09T07:47:20.236Z,50.75
2024-05-09T07:48:56.898Z,50.89
2024-05-09T07:53:30.477Z,51.18
2024-05-09T07:54:23.729Z,51.24
2024-05-09T07:55:23.599Z,52.69
2024-05-09T07:56:24.387Z,54.49
2024-05-09T07:57:23.404Z,57.50
2024-05-09T07:58:23.344Z,59.47
2024-05-09T07:59:23.318Z,58.91
2024-05-09T08:00:29.538Z,56.79
2024-05-09T08:01:24.430Z,57.00
2024-05-09T08:02:23.354Z,57.11
2024-05-09T08:03:23.491Z,57.48
2024-05-09T08:04:25.249Z,55.15
2024-05-09T08:05:23.212Z,57.70
2024-05-09T08:06:23.081Z,55.48
2024-05-09T08:07:23.167Z,54.68
2024-05-09T08:08:23.050Z,55.20
2024-05-09T08:09:23.003Z,53.95
2024-05-09T08:10:27.454Z,54.05
2024-05-09T08:11:24.121Z,54.32
2024-05-09T08:12:22.920Z,54.38
2024-05-09T08:13:23.213Z,55.15
2024-05-09T08:14:22.838Z,54.81
2024-05-09T08:15:22.809Z,53.19
2024-05-09T08:16:22.920Z,52.12
2024-05-09T08:17:22.811Z,51.69
2024-05-09T08:18:22.801Z,50.00
2024-05-09T08:19:22.771Z,51.38
2024-05-09T08:20:30.661Z,50.43
2024-05-09T08:21:23.610Z,50.64
2024-05-09T08:22:22.578Z,50.76
2024-05-09T08:23:22.542Z,50.93
2024-05-09T08:24:22.577Z,51.33
2024-05-09T08:25:23.430Z,50.40
2024-05-09T08:26:22.433Z,52.16
2024-05-09T08:27:22.406Z,51.88
2024-05-09T08:28:22.422Z,50.59
2024-05-09T08:29:22.324Z,51.01
2024-05-09T08:30:29.707Z,50.20
2024-05-09T08:31:23.353Z,50.42
2024-05-09T08:32:22.227Z,50.68
2024-05-09T08:33:22.256Z,51.24
2024-05-09T08:34:22.228Z,52.45
2024-05-09T08:35:22.102Z,54.16
2024-05-09T08:36:22.053Z,53.52
2024-05-09T08:37:24.703Z,54.10
2024-05-09T08:38:22.989Z,54.22
2024-05-09T08:39:21.983Z,54.33
2024-05-09T08:40:30.640Z,53.81
2024-05-09T08:41:22.879Z,54.29
2024-05-09T08:42:21.837Z,54.40
2024-05-09T08:43:21.848Z,53.70
2024-05-09T08:44:21.759Z,54.65
2024-05-09T08:45:21.724Z,54.29
2024-05-09T08:46:21.853Z,53.67
2024-05-09T08:47:21.692Z,53.10
2024-05-09T08:48:21.780Z,52.15
2024-05-09T08:49:21.657Z,52.30
2024-05-09T08:50:31.483Z,52.23
2024-05-09T08:51:22.488Z,52.42
2024-05-09T08:52:21.458Z,52.51
2024-05-09T08:53:21.446Z,52.89
2024-05-09T08:54:21.377Z,52.50
2024-05-09T08:55:21.363Z,53.03
2024-05-09T08:56:21.295Z,51.26
2024-05-09T08:57:21.257Z,50.93
2024-05-09T08:58:21.372Z,52.25
2024-05-09T08:59:21.183Z,52.31
2024-05-09T09:00:29.617Z,51.35
2024-05-09T09:01:22.273Z,51.54
2024-05-09T09:02:21.402Z,52.03
2024-05-09T09:03:21.081Z,52.53
2024-05-09T09:04:21.106Z,51.75
2024-05-09T09:05:21.057Z,52.46
2024-05-09T09:06:20.920Z,50.82
2024-05-09T09:07:20.935Z,52.09
2024-05-09T09:08:20.828Z,52.89
2024-05-09T09:09:20.791Z,50.00
2024-05-09T09:10:29.171Z,50.68
2024-05-09T09:11:21.747Z,50.87
2024-05-09T09:12:20.658Z,50.96
2024-05-09T09:13:20.724Z,51.34
2024-05-09T09:14:20.588Z,51.74
2024-05-09T09:15:20.547Z,51.01
2024-05-09T09:16:20.669Z,51.58
2024-05-09T09:17:20.491Z,51.23
2024-05-09T09:18:20.554Z,50.50
2024-05-09T09:19:20.488Z,51.90
2024-05-09T09:20:26.367Z,51.35
2024-05-09T09:21:21.345Z,51.50
2024-05-09T09:22:20.366Z,51.83
2024-05-09T09:23:20.275Z,51.89
2024-05-09T09:24:20.232Z,51.82
2024-05-09T09:25:20.231Z,52.54
2024-05-09T09:26:20.158Z,52.17
2024-05-09T09:27:20.128Z,51.50
2024-05-09T09:28:20.136Z,52.05
2024-05-09T09:29:20.057Z,50.92
2024-05-09T09:30:31.742Z,51.63
2024-05-09T09:31:21.097Z,51.80
2024-05-09T09:32:20.014Z,52.19
2024-05-09T09:33:20.003Z,52.68
2024-05-09T09:34:19.991Z,52.52
2024-05-09T09:35:19.855Z,52.33
2024-05-09T09:36:19.824Z,52.70
2024-05-09T09:37:19.859Z,52.01
2024-05-09T09:38:19.766Z,52.97
2024-05-09T09:39:19.715Z,50.73
2024-05-09T09:40:22.328Z,51.95
2024-05-09T09:41:20.642Z,52.11
2024-05-09T09:42:19.608Z,52.29
2024-05-09T09:43:19.678Z,52.10
2024-05-09T09:44:19.547Z,51.96
2024-05-09T09:45:19.506Z,52.01
2024-05-09T09:46:19.535Z,50.13
2024-05-09T09:47:19.460Z,51.91
2024-05-09T09:48:19.514Z,51.18
2024-05-09T09:49:19.434Z,50.58
2024-05-09T09:50:27.315Z,51.62
2024-05-09T09:51:20.946Z,51.80
2024-05-09T09:52:19.539Z,52.00
2024-05-09T09:53:19.232Z,52.06
2024-05-09T09:54:19.950Z,51.66
2024-05-09T09:55:19.237Z,51.93
2024-05-09T09:56:19.097Z,53.10
2024-05-09T09:57:19.065Z,51.09
2024-05-09T09:58:19.088Z,50.49
2024-05-09T09:59:19.011Z,52.33
2024-05-09T10:00:24.551Z,51.92
2024-05-09T10:01:20.182Z,52.03
2024-05-09T10:02:19.090Z,52.39
2024-05-09T10:03:19.229Z,52.36
2024-05-09T10:04:19.151Z,51.84
2024-05-09T10:05:18.937Z,51.82
2024-05-09T10:06:18.741Z,51.54
2024-05-09T10:07:18.712Z,51.76
2024-05-09T10:08:18.651Z,50.40
2024-05-09T10:09:18.614Z,51.54
2024-05-09T10:10:26.886Z,50.44
2024-05-09T10:11:19.512Z,50.63
2024-05-09T10:12:18.513Z,50.79
2024-05-09T10:13:18.549Z,51.08
2024-05-09T10:14:18.384Z,51.31
2024-05-09T10:15:18.353Z,51.58
2024-05-09T10:16:18.433Z,51.49
2024-05-09T10:17:18.316Z,50.00
2024-05-09T10:18:18.354Z,51.36
2024-05-09T10:19:18.309Z,50.35
2024-05-09T10:20:22.035Z,50.18
2024-05-09T10:21:19.166Z,50.36
2024-05-09T10:22:18.259Z,50.87
2024-05-09T10:23:18.064Z,50.79
2024-05-09T10:24:18.020Z,51.35
2024-05-09T10:25:18.115Z,52.14
2024-05-09T10:26:17.948Z,52.74
2024-05-09T10:27:17.911Z,52.53
2024-05-09T10:28:17.906Z,51.21
2024-05-09T10:29:17.843Z,51.26
2024-05-09T10:30:25.750Z,50.21
2024-05-09T10:31:18.848Z,50.43
2024-05-09T10:32:17.732Z,50.96
2024-05-09T10:33:17.746Z,50.83
2024-05-09T10:34:17.814Z,51.44
2024-05-09T10:35:17.597Z,51.65
2024-05-09T10:36:17.547Z,51.64
2024-05-09T10:37:17.643Z,50.80
2024-05-09T10:38:17.467Z,51.50
2024-05-09T10:39:17.823Z,50.53
2024-05-09T10:40:25.747Z,50.83
2024-05-09T10:41:18.334Z,51.01
2024-05-09T10:42:17.294Z,51.26
2024-05-09T10:43:17.490Z,51.12
2024-05-09T10:44:17.232Z,51.88
2024-05-09T10:45:17.170Z,50.91
2024-05-09T10:46:17.201Z,50.73
2024-05-09T10:47:17.162Z,50.84
2024-05-09T10:48:17.116Z,51.75
2024-05-09T10:49:17.182Z,52.13
2024-05-09T10:50:22.670Z,50.38
2024-05-09T10:51:17.947Z,50.55
2024-05-09T10:52:16.945Z,51.14
2024-05-09T10:53:16.867Z,51.23
2024-05-09T10:54:16.869Z,52.50
2024-05-09T10:55:16.885Z,53.52
2024-05-09T10:56:17.130Z,52.91
2024-05-09T10:57:16.712Z,54.06
2024-05-09T10:58:16.774Z,51.84
2024-05-09T10:59:16.633Z,51.35
2024-05-09T11:00:26.992Z,51.59
2024-05-09T11:01:17.630Z,51.80
2024-05-09T11:02:16.628Z,52.02
2024-05-09T11:03:16.555Z,52.65
2024-05-09T11:04:16.825Z,52.86
2024-05-09T11:05:16.542Z,53.57
2024-05-09T11:06:16.357Z,53.29
2024-05-09T11:07:16.410Z,52.90
2024-05-09T11:08:16.295Z,53.01
2024-05-09T11:09:16.266Z,53.30
2024-05-09T11:10:24.363Z,53.71
2024-05-09T11:11:17.198Z,53.84
2024-05-09T11:12:16.168Z,54.04
2024-05-09T11:13:16.179Z,54.54
2024-05-09T11:14:16.035Z,54.85
2024-05-09T11:15:16.001Z,55.05
2024-05-09T11:16:16.020Z,54.26
2024-05-09T11:17:15.965Z,54.38
2024-05-09T11:18:16.058Z,54.38
2024-05-09T11:19:16.044Z,53.52
2024-05-09T11:20:22.909Z,52.88
2024-05-09T11:21:16.801Z,53.08
2024-05-09T11:22:15.841Z,53.41
2024-05-09T11:23:15.741Z,53.99
2024-05-09T11:24:15.704Z,54.72
2024-05-09T11:25:15.782Z,53.89
2024-05-09T11:26:15.641Z,54.81
2024-05-09T11:27:15.603Z,54.76
2024-05-09T11:28:15.740Z,54.87
2024-05-09T11:29:17.898Z,53.57
2024-05-09T11:30:23.775Z,57.13
2024-05-09T11:31:16.517Z,57.39
2024-05-09T11:32:15.463Z,57.74
2024-05-09T11:33:15.465Z,57.80
2024-05-09T11:34:15.441Z,57.01
2024-05-09T11:35:15.342Z,55.87
2024-05-09T11:36:15.379Z,55.51
2024-05-09T11:37:15.338Z,55.79
2024-05-09T11:38:15.260Z,56.35
2024-05-09T11:39:15.212Z,55.60
2024-05-09T11:40:21.458Z,54.48
2024-05-09T11:41:16.147Z,54.67
2024-05-09T11:42:15.103Z,54.83
2024-05-09T11:43:15.135Z,55.50
2024-05-09T11:44:15.025Z,56.53
2024-05-09T11:45:15.000Z,55.71
2024-05-09T11:46:15.253Z,55.78
2024-05-09T11:47:14.929Z,54.53
2024-05-09T11:48:14.969Z,53.34
2024-05-09T11:49:14.907Z,53.71
2024-05-09T11:50:22.543Z,53.89
2024-05-09T11:51:15.790Z,54.13
2024-05-09T11:52:14.827Z,54.45
2024-05-09T11:53:14.732Z,54.75
2024-05-09T11:54:14.686Z,55.92
2024-05-09T11:55:14.794Z,55.04
2024-05-09T11:56:14.609Z,55.08
2024-05-09T11:57:14.578Z,54.97
2024-05-09T11:58:14.692Z,54.40
2024-05-09T11:59:14.601Z,54.05
2024-05-09T12:00:20.777Z,53.43
2024-05-09T12:01:15.509Z,53.66
2024-05-09T12:02:14.667Z,54.08
2024-05-09T12:03:14.580Z,54.23
2024-05-09T12:04:14.711Z,53.95
2024-05-09T12:05:14.420Z,54.48
2024-05-09T12:06:14.312Z,54.47
2024-05-09T12:07:14.344Z,54.72
2024-05-09T12:08:14.242Z,53.49
2024-05-09T12:09:14.177Z,53.85
2024-05-09T12:10:19.479Z,52.82
2024-05-09T12:11:15.170Z,53.03
2024-05-09T12:12:14.092Z,53.04
2024-05-09T12:13:14.086Z,53.34
2024-05-09T12:14:14.032Z,53.95
2024-05-09T12:15:13.992Z,53.22
2024-05-09T12:16:14.062Z,53.89
2024-05-09T12:17:14.005Z,52.99
2024-05-09T12:18:13.965Z,54.50
2024-05-09T12:19:13.916Z,54.19
2024-05-09T12:21:13.770Z,53.00
2024-05-09T12:22:13.825Z,51.83
2024-05-09T12:23:13.726Z,54.20
2024-05-09T12:24:15.245Z,53.46
2024-05-09T12:25:13.861Z,55.01
2024-05-09T12:26:13.645Z,53.19
2024-05-09T12:27:13.608Z,52.69
2024-05-09T12:28:13.667Z,51.51
2024-05-09T12:29:13.536Z,53.85
2024-05-09T12:30:20.783Z,52.08
2024-05-09T12:31:14.564Z,52.43
2024-05-09T12:32:13.509Z,52.84
2024-05-09T12:33:13.842Z,53.20
2024-05-09T12:34:13.504Z,54.77
2024-05-09T12:35:13.304Z,54.58
2024-05-09T12:36:13.278Z,54.01
2024-05-09T12:37:13.284Z,52.28
2024-05-09T12:38:13.181Z,51.41
2024-05-09T12:39:13.146Z,52.35
2024-05-09T12:40:22.457Z,51.52
2024-05-09T12:41:14.083Z,51.68
2024-05-09T12:42:22.324Z,51.64
2024-05-09T12:43:14.016Z,51.76
2024-05-09T12:44:12.954Z,52.16
2024-05-09T12:45:12.902Z,52.26
2024-05-09T12:46:12.910Z,51.92
2024-05-09T12:47:12.829Z,50.54
2024-05-09T12:48:13.508Z,50.34
2024-05-09T12:49:14.994Z,50.65
2024-05-09T12:51:12.688Z,53.24
2024-05-09T12:52:12.847Z,51.64
2024-05-09T12:53:12.670Z,51.25
2024-05-09T12:54:12.562Z,51.21
2024-05-09T12:55:12.685Z,50.86
2024-05-09T12:56:12.482Z,51.15
2024-05-09T12:57:12.441Z,50.15
2024-05-09T12:58:12.434Z,51.89
2024-05-09T12:59:12.364Z,50.74